createdAt,value
2022-11-16T00:03:03.190Z,0
2022-11-16T00:14:05.660Z,0
2022-11-16T00:19:27.250Z,0
2022-11-16T00:25:01.688Z,0
2022-11-16T00:30:19.595Z,0
2022-11-16T00:40:54.439Z,0
2022-11-16T00:46:11.732Z,0
2022-11-16T00:51:31.355Z,0
2022-11-16T00:56:48.512Z,0
2022-11-16T01:02:09.224Z,0
2022-11-16T01:07:26.576Z,0
2022-11-16T01:12:44.061Z,0
2022-11-16T01:18:01.378Z,0
2022-11-16T01:23:18.838Z,0
2022-11-16T01:28:36.305Z,0
2022-11-16T01:33:53.998Z,0
2022-11-16T01:39:18.575Z,0
2022-11-16T01:44:35.958Z,0
2022-11-16T01:49:53.184Z,0
2022-11-16T02:00:30.368Z,0
2022-11-16T02:05:47.636Z,0
2022-11-16T02:11:22.072Z,0
2022-11-16T02:16:39.907Z,0
2022-11-16T02:21:59.838Z,0
2022-11-16T02:27:17.042Z,0
2022-11-16T02:32:34.237Z,0
2022-11-16T02:37:51.556Z,0
2022-11-16T02:43:08.912Z,0
2022-11-16T02:48:26.493Z,0
2022-11-16T02:53:47.176Z,0
2022-11-16T02:59:04.580Z,0
2022-11-16T03:04:24.350Z,0
2022-11-16T03:09:41.587Z,0
2022-11-16T03:14:58.722Z,0
2022-11-16T03:25:51.508Z,0
2022-11-16T03:31:09.184Z,0
2022-11-16T03:36:26.536Z,0
2022-11-16T03:42:01.037Z,0
2022-11-16T03:47:18.755Z,0
2022-11-16T03:52:36.002Z,0
2022-11-16T03:57:53.430Z,0
2022-11-16T04:03:10.799Z,0
2022-11-16T04:08:28.611Z,0
2022-11-16T04:13:45.892Z,0
2022-11-16T04:19:47.694Z,0
2022-11-16T04:25:05.370Z,0
2022-11-16T04:30:22.469Z,0
2022-11-16T04:35:39.594Z,0
2022-11-16T04:40:57.112Z,0
2022-11-16T04:46:14.265Z,0
2022-11-16T04:51:31.623Z,0
2022-11-16T05:07:58.151Z,0
2022-11-16T05:13:15.951Z,0
2022-11-16T05:18:33.900Z,0
2022-11-16T05:23:51.460Z,0
2022-11-16T05:34:28.953Z,0
2022-11-16T05:39:48.330Z,0
2022-11-16T05:45:42.890Z,0
2022-11-16T05:51:00.524Z,0
2022-11-16T05:56:17.699Z,0
2022-11-16T06:07:09.992Z,0
2022-11-16T06:12:34.606Z,0
2022-11-16T06:17:53.569Z,0
2022-11-16T06:23:11.114Z,0
2022-11-16T06:28:28.299Z,0.5
2022-11-16T06:33:49.091Z,24.6
2022-11-16T06:39:06.165Z,56.7
2022-11-16T06:44:23.303Z,108.8
2022-11-16T06:49:40.591Z,184.2
2022-11-16T06:55:00.596Z,292.5
2022-11-16T07:00:17.559Z,438.7
2022-11-16T07:05:34.938Z,595.4
2022-11-16T07:16:15.491Z,877.9
2022-11-16T07:21:32.691Z,952.1
2022-11-16T07:26:49.713Z,1183.7
2022-11-16T07:32:06.717Z,1345
2022-11-16T07:42:51.412Z,1765.8
2022-11-16T07:48:09.217Z,2310.8
2022-11-16T07:53:26.680Z,2390
2022-11-16T07:58:44.227Z,2400
2022-11-16T08:04:02.290Z,2633.3
2022-11-16T08:09:19.684Z,3360.8
2022-11-16T08:14:36.750Z,3828.3
2022-11-16T08:20:01.416Z,3187.1
2022-11-16T08:25:18.625Z,3828.8
2022-11-16T08:30:35.585Z,3692.1
2022-11-16T08:35:52.747Z,6740.8
2022-11-16T08:41:10.757Z,8139.6
2022-11-16T08:46:28.323Z,3313.3
2022-11-16T08:51:45.791Z,4907.1
2022-11-16T08:57:02.918Z,5093.3
2022-11-16T09:02:20.027Z,5054.6
2022-11-16T09:07:37.397Z,5021.3
2022-11-16T09:12:54.621Z,5448.8
2022-11-16T09:18:12.108Z,5692.5
2022-11-16T09:23:29.677Z,5772.9
2022-11-16T09:28:46.847Z,7082.9
2022-11-16T09:34:04.048Z,9850.4
2022-11-16T09:39:36.841Z,9250.4
2022-11-16T09:45:52.702Z,8103.3
2022-11-16T09:51:10.031Z,6805.8
2022-11-16T09:56:27.330Z,8203.3
2022-11-16T10:07:04.311Z,6455
2022-11-16T10:12:22.661Z,7846.3
2022-11-16T10:17:39.484Z,4317.9
2022-11-16T10:22:57.405Z,8983.7
2022-11-16T10:33:41.908Z,8611.7
2022-11-16T10:38:59.486Z,8516.2
2022-11-16T10:49:57.998Z,8454.6
2022-11-16T10:55:15.553Z,9324.2
2022-11-16T11:00:32.609Z,10449.6
2022-11-16T11:11:17.442Z,9846.2
2022-11-16T11:16:34.966Z,11275.4
2022-11-16T11:21:52.195Z,10546.2
2022-11-16T11:27:46.512Z,8137.5
2022-11-16T11:33:02.894Z,11709.2
2022-11-16T11:38:20.417Z,8753.8
2022-11-16T11:43:40.207Z,6160.8
2022-11-16T11:48:58.478Z,11273.3
2022-11-16T11:54:15.433Z,9400.4
2022-11-16T12:04:58.625Z,6310.8
2022-11-16T12:15:31.389Z,9165.4
2022-11-16T12:20:48.292Z,8898.3
2022-11-16T12:26:05.379Z,5434.6
2022-11-16T12:36:39.570Z,6841.3
2022-11-16T12:41:56.348Z,7087.1
2022-11-16T12:47:13.115Z,6225.8
2022-11-16T12:52:29.873Z,5616.2
2022-11-16T12:57:46.154Z,4575
2022-11-16T13:03:02.861Z,4257.9
2022-11-16T13:08:26.288Z,3906.7
2022-11-16T13:13:53.545Z,3805
2022-11-16T13:19:18.803Z,4440.4
2022-11-16T13:24:43.946Z,6095.4
2022-11-16T13:30:09.380Z,7734.6
2022-11-16T13:35:34.882Z,6350.8
2022-11-16T13:40:59.901Z,4673.7
2022-11-16T13:46:40.748Z,4405.8
2022-11-16T13:52:23.019Z,2618.8
2022-11-16T13:57:40.442Z,2624.6
2022-11-16T14:03:01.212Z,2408.3
2022-11-16T14:08:18.650Z,2169.2
2022-11-16T14:13:35.845Z,2196.3
2022-11-16T14:18:53.435Z,3319.6
2022-11-16T14:24:10.349Z,3918.3
2022-11-16T14:29:27.426Z,2782.1
2022-11-16T14:40:01.339Z,2076.7
2022-11-16T14:50:40.903Z,1490.4
2022-11-16T14:55:58.162Z,1340.4
2022-11-16T15:01:22.655Z,1167.9
2022-11-16T15:06:39.751Z,1175.8
2022-11-16T15:11:56.634Z,927.5
2022-11-16T15:17:13.366Z,829.6
2022-11-16T15:22:30.260Z,620
2022-11-16T15:27:47.563Z,505.8
2022-11-16T15:33:04.705Z,419.2
2022-11-16T15:44:14.418Z,230
2022-11-16T15:49:32.526Z,147.9
2022-11-16T15:54:49.386Z,88.3
2022-11-16T16:05:24.151Z,20.8
2022-11-16T16:10:41.646Z,0
2022-11-16T16:15:59.122Z,0
2022-11-16T16:21:16.656Z,0
2022-11-16T16:26:33.964Z,0
2022-11-16T16:31:51.220Z,0
2022-11-16T16:37:08.329Z,0
2022-11-16T16:42:25.681Z,0
2022-11-16T16:47:43.292Z,0
2022-11-16T16:58:23.819Z,0
2022-11-16T17:03:41.614Z,0
2022-11-16T17:08:58.938Z,0
2022-11-16T17:14:16.252Z,0
2022-11-16T17:19:33.682Z,0
2022-11-16T17:24:51.329Z,0
2022-11-16T17:30:08.492Z,0
2022-11-16T17:35:28.030Z,0
2022-11-16T17:40:45.372Z,0
2022-11-16T17:46:08.427Z,0
2022-11-16T17:51:25.690Z,0
2022-11-16T17:56:43.145Z,0
2022-11-16T18:02:00.573Z,0
2022-11-16T18:07:20.123Z,0
2022-11-16T18:12:46.287Z,0
2022-11-16T18:18:03.623Z,0
2022-11-16T18:23:21.548Z,0
2022-11-16T18:28:38.914Z,0
2022-11-16T18:33:56.304Z,0
2022-11-16T18:39:13.763Z,0
2022-11-16T18:44:31.096Z,0
2022-11-16T18:49:48.448Z,0
2022-11-16T18:55:06.106Z,0
2022-11-16T19:00:23.367Z,0
2022-11-16T19:05:40.771Z,0
2022-11-16T19:16:18.742Z,0
2022-11-16T19:21:35.791Z,0
2022-11-16T19:26:53.001Z,0
2022-11-16T19:32:10.280Z,0
2022-11-16T19:37:27.909Z,0
2022-11-16T19:42:45.464Z,0
2022-11-16T19:48:05.415Z,0
2022-11-16T19:53:28.106Z,0
2022-11-16T19:58:45.756Z,0
2022-11-16T20:04:05.537Z,0
2022-11-16T20:09:23.169Z,0
2022-11-16T20:14:40.697Z,0
2022-11-16T20:19:58.270Z,0
2022-11-16T20:25:15.491Z,0
2022-11-16T20:30:32.742Z,0
2022-11-16T20:35:50.266Z,0
2022-11-16T20:41:07.535Z,0
2022-11-16T20:46:24.957Z,0
2022-11-16T20:51:58.693Z,0
2022-11-16T20:57:16.280Z,0
2022-11-16T21:02:33.499Z,0
2022-11-16T21:07:50.833Z,0
2022-11-16T21:13:08.521Z,0
2022-11-16T21:18:30.468Z,0
2022-11-16T21:23:48.240Z,0
2022-11-16T21:34:25.992Z,0
2022-11-16T21:39:45.867Z,0
2022-11-16T21:45:03.341Z,0
2022-11-16T21:50:36.032Z,0
2022-11-16T21:55:57.279Z,0
2022-11-16T22:01:21.759Z,0
2022-11-16T22:06:39.726Z,0
2022-11-16T22:12:01.040Z,0
2022-11-16T22:17:23.812Z,0
2022-11-16T22:23:22.605Z,0
2022-11-16T22:28:41.066Z,0
2022-11-16T22:33:58.336Z,0
2022-11-16T22:39:15.717Z,0
2022-11-16T22:44:53.885Z,0
2022-11-16T22:50:11.447Z,0
2022-11-16T23:00:56.419Z,0
2022-11-16T23:06:14.144Z,0
2022-11-16T23:11:31.470Z,0
2022-11-16T23:16:48.822Z,0
2022-11-16T23:22:06.009Z,0
2022-11-16T23:27:23.304Z,0
2022-11-16T23:32:40.525Z,0
2022-11-16T23:38:07.178Z,0
2022-11-16T23:43:24.578Z,0
2022-11-16T23:48:42.048Z,0
2022-11-16T23:53:59.350Z,0
2022-11-16T23:59:16.519Z,0
